sensor_id;sensor_type;location;lat;lon;timestamp;pressure;altitude;pressure_sealevel;temperature;humidity
65227;BME280;51805;49.012;12.104;2023-05-29T00:00:34;97853.19;;;25.80;32.85
65227;BME280;51805;49.012;12.104;2023-05-29T00:02:59;97857.03;;;25.79;33.24
65227;BME280;51805;49.012;12.104;2023-05-29T00:05:24;97862.16;;;25.81;33.11
65227;BME280;51805;49.012;12.104;2023-05-29T00:07:50;97863.28;;;25.80;32.89
65227;BME280;51805;49.012;12.104;2023-05-29T00:10:15;97861.66;;;25.79;33.09
65227;BME280;51805;49.012;12.104;2023-05-29T00:12:41;97866.31;;;25.78;33.15
65227;BME280;51805;49.012;12.104;2023-05-29T00:15:06;97863.38;;;25.75;33.18
65227;BME280;51805;49.012;12.104;2023-05-29T00:17:32;97866.31;;;25.78;32.88
65227;BME280;51805;49.012;12.104;2023-05-29T00:20:01;97871.75;;;25.78;32.94
65227;BME280;51805;49.012;12.104;2023-05-29T00:22:27;97873.16;;;25.76;33.12
65227;BME280;51805;49.012;12.104;2023-05-29T00:24:52;97873.16;;;25.76;32.91
65227;BME280;51805;49.012;12.104;2023-05-29T00:27:18;97867.53;;;25.72;33.12
65227;BME280;51805;49.012;12.104;2023-05-29T00:29:43;97869.75;;;25.70;33.01
65227;BME280;51805;49.012;12.104;2023-05-29T00:32:09;97858.84;;;25.70;33.00
65227;BME280;51805;49.012;12.104;2023-05-29T00:34:35;97871.34;;;25.71;33.20
65227;BME280;51805;49.012;12.104;2023-05-29T00:37:00;97865.41;;;25.69;33.03
65227;BME280;51805;49.012;12.104;2023-05-29T00:39:25;97866.50;;;25.68;32.97
65227;BME280;51805;49.012;12.104;2023-05-29T00:41:50;97871.84;;;25.73;33.27
65227;BME280;51805;49.012;12.104;2023-05-29T00:44:17;97860.28;;;25.68;32.98
65227;BME280;51805;49.012;12.104;2023-05-29T00:46:43;97861.88;;;25.69;33.08
65227;BME280;51805;49.012;12.104;2023-05-29T00:49:08;97867.53;;;25.72;32.95
65227;BME280;51805;49.012;12.104;2023-05-29T00:51:34;97864.00;;;25.72;32.93
65227;BME280;51805;49.012;12.104;2023-05-29T00:53:59;97870.25;;;25.72;33.07
65227;BME280;51805;49.012;12.104;2023-05-29T00:56:25;97861.34;;;25.67;33.29
65227;BME280;51805;49.012;12.104;2023-05-29T00:58:51;97864.28;;;25.70;32.95
65227;BME280;51805;49.012;12.104;2023-05-29T01:01:18;97862.47;;;25.66;33.03
65227;BME280;51805;49.012;12.104;2023-05-29T01:03:44;97855.69;;;25.63;33.18
65227;BME280;51805;49.012;12.104;2023-05-29T01:06:09;97861.97;;;25.64;33.06
65227;BME280;51805;49.012;12.104;2023-05-29T01:08:34;97860.06;;;25.64;33.00
65227;BME280;51805;49.012;12.104;2023-05-29T01:11:21;97870.84;;;25.69;33.37
65227;BME280;51805;49.012;12.104;2023-05-29T01:13:53;97848.88;;;25.52;33.13
65227;BME280;51805;49.012;12.104;2023-05-29T01:16:36;97872.03;;;25.63;33.03
65227;BME280;51805;49.012;12.104;2023-05-29T01:22:12;97879.59;;;25.66;33.17
65227;BME280;51805;49.012;12.104;2023-05-29T01:24:48;97876.59;;;25.68;33.16
65227;BME280;51805;49.012;12.104;2023-05-29T01:27:17;97865.81;;;25.63;32.97
65227;BME280;51805;49.012;12.104;2023-05-29T01:29:43;97864.38;;;25.65;33.09
65227;BME280;51805;49.012;12.104;2023-05-29T01:32:09;97868.72;;;25.66;33.13
65227;BME280;51805;49.012;12.104;2023-05-29T01:34:35;97853.59;;;25.60;32.97
65227;BME280;51805;49.012;12.104;2023-05-29T01:37:00;97861.66;;;25.65;32.89
65227;BME280;51805;49.012;12.104;2023-05-29T01:39:26;97854.63;;;25.64;33.06
65227;BME280;51805;49.012;12.104;2023-05-29T01:41:52;97840.59;;;25.57;33.18
65227;BME280;51805;49.012;12.104;2023-05-29T01:44:18;97816.19;;;25.39;33.14
65227;BME280;51805;49.012;12.104;2023-05-29T01:46:44;97853.59;;;25.60;32.88
65227;BME280;51805;49.012;12.104;2023-05-29T01:49:10;97855.22;;;25.61;32.95
65227;BME280;51805;49.012;12.104;2023-05-29T01:51:36;97859.53;;;25.62;32.99
65227;BME280;51805;49.012;12.104;2023-05-29T01:54:01;97860.66;;;25.61;32.91
65227;BME280;51805;49.012;12.104;2023-05-29T01:56:27;97825.84;;;25.45;32.78
65227;BME280;51805;49.012;12.104;2023-05-29T01:58:57;97840.88;;;25.56;32.92
65227;BME280;51805;49.012;12.104;2023-05-29T02:01:23;97858.72;;;25.62;33.06
65227;BME280;51805;49.012;12.104;2023-05-29T02:03:49;97849.25;;;25.59;32.96
65227;BME280;51805;49.012;12.104;2023-05-29T02:06:14;97847.16;;;25.56;32.94
65227;BME280;51805;49.012;12.104;2023-05-29T02:08:39;97837.38;;;25.55;33.08
65227;BME280;51805;49.012;12.104;2023-05-29T02:11:04;97829.81;;;25.52;33.00
65227;BME280;51805;49.012;12.104;2023-05-29T02:13:31;97841.09;;;25.59;32.78
65227;BME280;51805;49.012;12.104;2023-05-29T02:15:56;97839.50;;;25.58;33.19
65227;BME280;51805;49.012;12.104;2023-05-29T02:18:21;97814.66;;;25.46;33.20
65227;BME280;51805;49.012;12.104;2023-05-29T02:20:47;97830.81;;;25.56;32.99
65227;BME280;51805;49.012;12.104;2023-05-29T02:23:12;97813.06;;;25.45;33.08
65227;BME280;51805;49.012;12.104;2023-05-29T02:25:37;97827.88;;;25.53;32.97
65227;BME280;51805;49.012;12.104;2023-05-29T02:28:03;97833.84;;;25.55;33.14
65227;BME280;51805;49.012;12.104;2023-05-29T02:30:28;97838.97;;;25.56;32.98
65227;BME280;51805;49.012;12.104;2023-05-29T02:32:54;97833.03;;;25.54;33.03
65227;BME280;51805;49.012;12.104;2023-05-29T02:35:19;97829.22;;;25.55;32.85
65227;BME280;51805;49.012;12.104;2023-05-29T02:37:45;97828.19;;;25.51;33.07
65227;BME280;51805;49.012;12.104;2023-05-29T02:40:10;97834.06;;;25.58;32.90
65227;BME280;51805;49.012;12.104;2023-05-29T02:42:36;97835.16;;;25.57;33.11
65227;BME280;51805;49.012;12.104;2023-05-29T02:45:01;97828.69;;;25.53;33.11
65227;BME280;51805;49.012;12.104;2023-05-29T02:47:27;97840.59;;;25.57;33.03
65227;BME280;51805;49.012;12.104;2023-05-29T02:49:52;97829.81;;;25.52;32.77
65227;BME280;51805;49.012;12.104;2023-05-29T02:52:17;97832.03;;;25.50;32.93
65227;BME280;51805;49.012;12.104;2023-05-29T02:54:42;97835.88;;;25.49;32.95
65227;BME280;51805;49.012;12.104;2023-05-29T02:57:08;97830.59;;;25.53;33.06
65227;BME280;51805;49.012;12.104;2023-05-29T02:59:33;97824.47;;;25.47;32.76
65227;BME280;51805;49.012;12.104;2023-05-29T03:01:58;97830.59;;;25.53;33.41
65227;BME280;51805;49.012;12.104;2023-05-29T03:04:24;97821.75;;;25.47;32.84
65227;BME280;51805;49.012;12.104;2023-05-29T03:06:49;97818.22;;;25.47;32.79
65227;BME280;51805;49.012;12.104;2023-05-29T03:09:14;97829.81;;;25.52;33.04
65227;BME280;51805;49.012;12.104;2023-05-29T03:11:40;97813.88;;;25.46;32.99
65227;BME280;51805;49.012;12.104;2023-05-29T03:14:05;97810.94;;;25.42;32.95
65227;BME280;51805;49.012;12.104;2023-05-29T03:16:30;97820.13;;;25.46;32.96
65227;BME280;51805;49.012;12.104;2023-05-29T03:18:55;97832.53;;;25.52;32.78
65227;BME280;51805;49.012;12.104;2023-05-29T03:21:21;97827.19;;;25.47;32.96
65227;BME280;51805;49.012;12.104;2023-05-29T03:23:46;97802.69;;;25.34;32.92
65227;BME280;51805;49.012;12.104;2023-05-29T03:26:11;97809.13;;;25.38;32.68
65227;BME280;51805;49.012;12.104;2023-05-29T03:28:37;97826.16;;;25.43;33.16
65227;BME280;51805;49.012;12.104;2023-05-29T03:31:02;97836.34;;;25.51;32.97
65227;BME280;51805;49.012;12.104;2023-05-29T03:33:28;97812.56;;;25.43;32.84
65227;BME280;51805;49.012;12.104;2023-05-29T03:35:53;97817.69;;;25.45;32.83
65227;BME280;51805;49.012;12.104;2023-05-29T03:38:18;97828.19;;;25.51;32.74
65227;BME280;51805;49.012;12.104;2023-05-29T03:40:43;97828.88;;;25.43;32.88
65227;BME280;51805;49.012;12.104;2023-05-29T03:43:09;97842.91;;;25.50;32.85
65227;BME280;51805;49.012;12.104;2023-05-29T03:45:34;97830.00;;;25.42;33.25
65227;BME280;51805;49.012;12.104;2023-05-29T03:47:59;97842.47;;;25.43;32.97
65227;BME280;51805;49.012;12.104;2023-05-29T03:50:24;97835.44;;;25.42;32.91
65227;BME280;51805;49.012;12.104;2023-05-29T03:52:50;97842.69;;;25.47;32.85
65227;BME280;51805;49.012;12.104;2023-05-29T03:55:15;97824.16;;;25.35;33.02
65227;BME280;51805;49.012;12.104;2023-05-29T03:57:41;97837.03;;;25.43;32.91
65227;BME280;51805;49.012;12.104;2023-05-29T04:00:10;97835.44;;;25.42;32.99
65227;BME280;51805;49.012;12.104;2023-05-29T04:02:37;97844.91;;;25.45;33.08
65227;BME280;51805;49.012;12.104;2023-05-29T04:05:04;97822.53;;;25.34;32.86
65227;BME280;51805;49.012;12.104;2023-05-29T04:07:29;97831.19;;;25.36;33.02
65227;BME280;51805;49.012;12.104;2023-05-29T04:09:54;97852.50;;;25.48;33.14
65227;BME280;51805;49.012;12.104;2023-05-29T04:12:19;97856.09;;;25.43;33.00
65227;BME280;51805;49.012;12.104;2023-05-29T04:14:45;97855.47;;;25.46;32.85
65227;BME280;51805;49.012;12.104;2023-05-29T04:17:10;97861.53;;;25.43;32.93
65227;BME280;51805;49.012;12.104;2023-05-29T04:19:35;97866.38;;;25.46;33.03
65227;BME280;51805;49.012;12.104;2023-05-29T04:22:01;97859.63;;;25.44;33.05
65227;BME280;51805;49.012;12.104;2023-05-29T04:24:26;97814.41;;;25.16;32.86
65227;BME280;51805;49.012;12.104;2023-05-29T04:26:51;97851.25;;;25.40;32.81
65227;BME280;51805;49.012;12.104;2023-05-29T04:29:16;97861.53;;;25.43;32.86
65227;BME280;51805;49.012;12.104;2023-05-29T04:31:42;97859.31;;;25.45;32.99
65227;BME280;51805;49.012;12.104;2023-05-29T04:34:08;97871.03;;;25.46;32.81
65227;BME280;51805;49.012;12.104;2023-05-29T04:36:33;97875.06;;;25.48;32.88
65227;BME280;51805;49.012;12.104;2023-05-29T04:38:59;97891.28;;;25.53;32.96
65227;BME280;51805;49.012;12.104;2023-05-29T04:41:25;97883.22;;;25.48;32.61
65227;BME280;51805;49.012;12.104;2023-05-29T04:43:50;97884.84;;;25.49;32.89
65227;BME280;51805;49.012;12.104;2023-05-29T04:46:16;97886.16;;;25.52;32.83
65227;BME280;51805;49.012;12.104;2023-05-29T04:48:41;97900.56;;;25.52;32.60
65227;BME280;51805;49.012;12.104;2023-05-29T04:51:06;97894.63;;;25.50;32.76
65227;BME280;51805;49.012;12.104;2023-05-29T04:53:32;97907.00;;;25.56;32.84
65227;BME280;51805;49.012;12.104;2023-05-29T04:55:57;97896.72;;;25.53;32.80
65227;BME280;51805;49.012;12.104;2023-05-29T04:58:25;97905.81;;;25.62;32.77
65227;BME280;51805;49.012;12.104;2023-05-29T05:00:50;97900.16;;;25.59;32.92
65227;BME280;51805;49.012;12.104;2023-05-29T05:03:16;97902.19;;;25.53;32.93
65227;BME280;51805;49.012;12.104;2023-05-29T05:05:41;97898.56;;;25.58;32.75
65227;BME280;51805;49.012;12.104;2023-05-29T05:08:06;97890.69;;;25.56;33.01
65227;BME280;51805;49.012;12.104;2023-05-29T05:10:32;97904.22;;;25.61;32.71
65227;BME280;51805;49.012;12.104;2023-05-29T05:12:57;97883.72;;;25.50;32.87
65227;BME280;51805;49.012;12.104;2023-05-29T05:15:22;97884.25;;;25.52;32.80
65227;BME280;51805;49.012;12.104;2023-05-29T05:17:47;97902.78;;;25.64;32.75
65227;BME280;51805;49.012;12.104;2023-05-29T05:20:13;97917.69;;;25.66;32.79
65227;BME280;51805;49.012;12.104;2023-05-29T05:22:38;97916.91;;;25.66;32.80
65227;BME280;51805;49.012;12.104;2023-05-29T05:25:04;97908.63;;;25.57;32.77
65227;BME280;51805;49.012;12.104;2023-05-29T05:27:29;97937.19;;;25.73;32.59
65227;BME280;51805;49.012;12.104;2023-05-29T05:29:54;97929.63;;;25.70;32.91
65227;BME280;51805;49.012;12.104;2023-05-29T05:32:20;97913.88;;;25.67;32.83
65227;BME280;51805;49.012;12.104;2023-05-29T05:34:45;97927.91;;;25.74;32.71
65227;BME280;51805;49.012;12.104;2023-05-29T05:37:10;97919.56;;;25.71;32.57
65227;BME280;51805;49.012;12.104;2023-05-29T05:39:35;97918.66;;;25.75;32.74
65227;BME280;51805;49.012;12.104;2023-05-29T05:42:01;97918.72;;;25.70;32.83
65227;BME280;51805;49.012;12.104;2023-05-29T05:44:26;97918.13;;;25.73;32.91
65227;BME280;51805;49.012;12.104;2023-05-29T05:46:51;97911.09;;;25.72;32.70
65227;BME280;51805;49.012;12.104;2023-05-29T05:49:17;97918.34;;;25.77;32.64
65227;BME280;51805;49.012;12.104;2023-05-29T05:51:42;97918.13;;;25.73;32.59
65227;BME280;51805;49.012;12.104;2023-05-29T05:54:07;97923.78;;;25.77;32.71
65227;BME280;51805;49.012;12.104;2023-05-29T05:56:32;97914.09;;;25.71;32.70
65227;BME280;51805;49.012;12.104;2023-05-29T05:58:58;97919.72;;;25.74;32.64
65227;BME280;51805;49.012;12.104;2023-05-29T06:01:23;97922.38;;;25.79;32.64
65227;BME280;51805;49.012;12.104;2023-05-29T06:03:49;97921.38;;;25.75;32.58
65227;BME280;51805;49.012;12.104;2023-05-29T06:06:14;97932.66;;;25.82;32.83
65227;BME280;51805;49.012;12.104;2023-05-29T06:08:39;97930.75;;;25.83;32.59
65227;BME280;51805;49.012;12.104;2023-05-29T06:11:05;97933.47;;;25.83;32.72
65227;BME280;51805;49.012;12.104;2023-05-29T06:13:30;97931.06;;;25.81;32.79
65227;BME280;51805;49.012;12.104;2023-05-29T06:15:55;97932.66;;;25.82;32.73
65227;BME280;51805;49.012;12.104;2023-05-29T06:18:20;97940.44;;;25.89;32.72
65227;BME280;51805;49.012;12.104;2023-05-29T06:20:46;97939.41;;;25.85;32.38
65227;BME280;51805;49.012;12.104;2023-05-29T06:23:11;97942.94;;;25.85;32.55
65227;BME280;51805;49.012;12.104;2023-05-29T06:25:36;97939.41;;;25.85;32.87
65227;BME280;51805;49.012;12.104;2023-05-29T06:28:02;97947.47;;;25.90;32.74
65227;BME280;51805;49.012;12.104;2023-05-29T06:30:28;97952.03;;;25.94;32.72
65227;BME280;51805;49.012;12.104;2023-05-29T06:32:53;97942.56;;;25.92;32.57
65227;BME280;51805;49.012;12.104;2023-05-29T06:35:19;97936.28;;;25.91;32.58
65227;BME280;51805;49.012;12.104;2023-05-29T06:37:45;97951.41;;;25.97;32.66
65227;BME280;51805;49.012;12.104;2023-05-29T06:40:12;97933.34;;;25.88;32.63
65227;BME280;51805;49.012;12.104;2023-05-29T06:42:37;97948.69;;;25.97;32.79
65227;BME280;51805;49.012;12.104;2023-05-29T06:45:03;97943.84;;;25.94;32.75
65227;BME280;51805;49.012;12.104;2023-05-29T06:47:28;97928.81;;;25.83;32.38
65227;BME280;51805;49.012;12.104;2023-05-29T06:49:53;97931.53;;;25.83;32.78
65227;BME280;51805;49.012;12.104;2023-05-29T06:52:19;97951.22;;;25.94;32.72
65227;BME280;51805;49.012;12.104;2023-05-29T06:54:44;97932.66;;;25.82;32.60
65227;BME280;51805;49.012;12.104;2023-05-29T06:57:09;97949.81;;;25.96;32.57
65227;BME280;51805;49.012;12.104;2023-05-29T06:59:34;97951.22;;;25.94;32.60
65227;BME280;51805;49.012;12.104;2023-05-29T07:02:00;97970.94;;;26.04;32.63
65227;BME280;51805;49.012;12.104;2023-05-29T07:04:25;97964.38;;;26.05;32.67
65227;BME280;51805;49.012;12.104;2023-05-29T07:06:50;97945.97;;;25.97;32.86
65227;BME280;51805;49.012;12.104;2023-05-29T07:09:15;97954.09;;;26.02;32.43
65227;BME280;51805;49.012;12.104;2023-05-29T07:11:41;97937.72;;;25.89;32.84
65227;BME280;51805;49.012;12.104;2023-05-29T07:14:06;97952.22;;;25.98;32.84
65227;BME280;51805;49.012;12.104;2023-05-29T07:16:32;97962.47;;;26.06;32.49
65227;BME280;51805;49.012;12.104;2023-05-29T07:18:57;97921.75;;;25.82;32.65
65227;BME280;51805;49.012;12.104;2023-05-29T07:21:22;97952.19;;;26.03;32.77
65227;BME280;51805;49.012;12.104;2023-05-29T07:23:48;97950.84;;;26.00;32.54
65227;BME280;51805;49.012;12.104;2023-05-29T07:26:13;97963.16;;;26.11;32.76
65227;BME280;51805;49.012;12.104;2023-05-29T07:28:38;97955.91;;;26.07;32.59
65227;BME280;51805;49.012;12.104;2023-05-29T07:31:03;97949.06;;;26.09;32.66
65227;BME280;51805;49.012;12.104;2023-05-29T07:33:29;97955.59;;;26.08;32.70
65227;BME280;51805;49.012;12.104;2023-05-29T07:35:54;97968.00;;;26.14;32.70
65227;BME280;51805;49.012;12.104;2023-05-29T07:38:19;97966.41;;;26.13;32.69
65227;BME280;51805;49.012;12.104;2023-05-29T07:40:47;97959.66;;;26.11;32.68
65227;BME280;51805;49.012;12.104;2023-05-29T07:43:12;97925.41;;;25.91;32.65
65227;BME280;51805;49.012;12.104;2023-05-29T07:45:37;97936.72;;;25.98;32.82
65227;BME280;51805;49.012;12.104;2023-05-29T07:48:03;97963.06;;;26.17;32.68
65227;BME280;51805;49.012;12.104;2023-05-29T07:50:28;97955.72;;;26.17;32.70
65227;BME280;51805;49.012;12.104;2023-05-29T07:52:53;97962.47;;;26.20;32.53
65227;BME280;51805;49.012;12.104;2023-05-29T07:55:19;97948.94;;;26.14;32.74
65227;BME280;51805;49.012;12.104;2023-05-29T07:57:44;97949.44;;;26.17;32.92
65227;BME280;51805;49.012;12.104;2023-05-29T08:00:09;97961.34;;;26.21;32.82
65227;BME280;51805;49.012;12.104;2023-05-29T08:02:35;97954.88;;;26.17;32.67
65227;BME280;51805;49.012;12.104;2023-05-29T08:05:00;97951.06;;;26.17;32.58
65227;BME280;51805;49.012;12.104;2023-05-29T08:07:25;97945.91;;;26.16;32.83
65227;BME280;51805;49.012;12.104;2023-05-29T08:09:51;97951.88;;;26.18;32.67
65227;BME280;51805;49.012;12.104;2023-05-29T08:12:16;97940.44;;;26.16;32.73
65227;BME280;51805;49.012;12.104;2023-05-29T08:14:41;97934.09;;;26.07;32.88
65227;BME280;51805;49.012;12.104;2023-05-29T08:17:06;97944.00;;;26.17;32.65
65227;BME280;51805;49.012;12.104;2023-05-29T08:19:32;97958.31;;;26.22;32.88
65227;BME280;51805;49.012;12.104;2023-05-29T08:21:57;97955.28;;;26.24;32.71
65227;BME280;51805;49.012;12.104;2023-05-29T08:24:22;97939.53;;;26.21;32.92
65227;BME280;51805;49.012;12.104;2023-05-29T08:26:48;97939.25;;;26.22;32.92
65227;BME280;51805;49.012;12.104;2023-05-29T08:29:13;97942.16;;;26.26;32.71
65227;BME280;51805;49.012;12.104;2023-05-29T08:31:38;97935.72;;;26.22;32.80
65227;BME280;51805;49.012;12.104;2023-05-29T08:34:03;97933.63;;;26.19;32.78
65227;BME280;51805;49.012;12.104;2023-05-29T08:36:29;97943.91;;;26.22;32.74
65227;BME280;51805;49.012;12.104;2023-05-29T08:38:54;97946.03;;;26.25;32.77
65227;BME280;51805;49.012;12.104;2023-05-29T08:41:41;97951.63;;;26.28;32.86
65227;BME280;51805;49.012;12.104;2023-05-29T08:44:13;97935.22;;;26.20;33.06
65227;BME280;51805;49.012;12.104;2023-05-29T08:46:39;97932.50;;;26.20;33.06
65227;BME280;51805;49.012;12.104;2023-05-29T08:49:08;97946.03;;;26.25;33.06
65227;BME280;51805;49.012;12.104;2023-05-29T08:51:37;97949.84;;;26.24;32.87
65227;BME280;51805;49.012;12.104;2023-05-29T08:54:05;97940.56;;;26.25;32.75
65227;BME280;51805;49.012;12.104;2023-05-29T08:56:31;97948.44;;;26.26;32.83
65227;BME280;51805;49.012;12.104;2023-05-29T08:58:56;97936.81;;;26.21;33.05
65227;BME280;51805;49.012;12.104;2023-05-29T09:01:22;97949.22;;;26.27;32.86
65227;BME280;51805;49.012;12.104;2023-05-29T09:03:48;97941.56;;;26.15;32.98
65227;BME280;51805;49.012;12.104;2023-05-29T09:06:13;97941.34;;;26.25;32.95
65227;BME280;51805;49.012;12.104;2023-05-29T09:08:38;97959.53;;;26.30;33.05
65227;BME280;51805;49.012;12.104;2023-05-29T09:11:04;97951.94;;;26.27;32.90
65227;BME280;51805;49.012;12.104;2023-05-29T09:13:29;97943.19;;;26.16;32.90
65227;BME280;51805;49.012;12.104;2023-05-29T09:15:58;97950.25;;;26.31;32.82
65227;BME280;51805;49.012;12.104;2023-05-29T09:18:30;97962.44;;;26.33;33.03
65227;BME280;51805;49.012;12.104;2023-05-29T09:20:56;97955.41;;;26.32;32.93
65227;BME280;51805;49.012;12.104;2023-05-29T09:23:21;97942.78;;;26.23;32.92
65227;BME280;51805;49.012;12.104;2023-05-29T09:25:51;97961.97;;;26.31;33.11
65227;BME280;51805;49.012;12.104;2023-05-29T09:28:17;97929.88;;;26.14;32.96
65227;BME280;51805;49.012;12.104;2023-05-29T09:30:44;97949.84;;;26.24;32.85
65227;BME280;51805;49.012;12.104;2023-05-29T09:33:11;97952.97;;;26.31;33.02
65227;BME280;51805;49.012;12.104;2023-05-29T09:35:41;97947.63;;;26.26;33.12
65227;BME280;51805;49.012;12.104;2023-05-29T09:38:14;97948.75;;;26.25;32.79
65227;BME280;51805;49.012;12.104;2023-05-29T09:40:40;97944.38;;;26.24;32.90
65227;BME280;51805;49.012;12.104;2023-05-29T09:43:10;97948.22;;;26.23;33.06
65227;BME280;51805;49.012;12.104;2023-05-29T09:45:37;97954.88;;;26.30;32.90
65227;BME280;51805;49.012;12.104;2023-05-29T09:48:02;97953.06;;;26.26;33.12
65227;BME280;51805;49.012;12.104;2023-05-29T09:50:28;97940.97;;;26.18;33.02
65227;BME280;51805;49.012;12.104;2023-05-29T09:52:56;97947.63;;;26.26;32.97
65227;BME280;51805;49.012;12.104;2023-05-29T09:55:21;97944.22;;;26.20;32.94
65227;BME280;51805;49.012;12.104;2023-05-29T09:57:48;97963.66;;;26.27;32.89
65227;BME280;51805;49.012;12.104;2023-05-29T10:00:13;97947.22;;;26.19;32.88
65227;BME280;51805;49.012;12.104;2023-05-29T10:02:39;97949.13;;;26.18;32.95
65227;BME280;51805;49.012;12.104;2023-05-29T10:05:04;97956.91;;;26.25;32.71
65227;BME280;51805;49.012;12.104;2023-05-29T10:07:31;97956.09;;;26.24;32.99
65227;BME280;51805;49.012;12.104;2023-05-29T10:09:59;97952.06;;;26.22;32.88
65227;BME280;51805;49.012;12.104;2023-05-29T10:12:26;97955.28;;;26.24;32.72
65227;BME280;51805;49.012;12.104;2023-05-29T10:14:54;97960.44;;;26.25;32.81
65227;BME280;51805;49.012;12.104;2023-05-29T10:17:25;97948.53;;;26.21;32.91
65227;BME280;51805;49.012;12.104;2023-05-29T10:19:50;97962.06;;;26.26;32.87
65227;BME280;51805;49.012;12.104;2023-05-29T10:22:19;97953.06;;;26.26;32.98
65227;BME280;51805;49.012;12.104;2023-05-29T10:24:47;97930.25;;;26.08;32.82
65227;BME280;51805;49.012;12.104;2023-05-29T10:27:13;97941.78;;;26.19;33.18
65227;BME280;51805;49.012;12.104;2023-05-29T10:29:44;97944.22;;;26.20;33.06
65227;BME280;51805;49.012;12.104;2023-05-29T10:35:27;97949.84;;;26.24;32.83
65227;BME280;51805;49.012;12.104;2023-05-29T10:37:58;97950.03;;;26.27;33.00
65227;BME280;51805;49.012;12.104;2023-05-29T10:40:25;97941.19;;;26.22;33.03
65227;BME280;51805;49.012;12.104;2023-05-29T10:42:51;97943.28;;;26.25;32.99
65227;BME280;51805;49.012;12.104;2023-05-29T10:47:54;97940.25;;;26.26;32.97
65227;BME280;51805;49.012;12.104;2023-05-29T10:50:40;97934.31;;;26.24;33.25
65227;BME280;51805;49.012;12.104;2023-05-29T10:53:09;97934.31;;;26.24;33.03
65227;BME280;51805;49.012;12.104;2023-05-29T10:55:36;97927.03;;;26.20;33.03
65227;BME280;51805;49.012;12.104;2023-05-29T10:58:11;97945.41;;;26.28;32.86
65227;BME280;51805;49.012;12.104;2023-05-29T11:00:40;97932.69;;;26.23;33.05
65227;BME280;51805;49.012;12.104;2023-05-29T11:03:07;97944.59;;;26.27;32.66
65227;BME280;51805;49.012;12.104;2023-05-29T11:05:32;97926.75;;;26.21;32.91
65227;BME280;51805;49.012;12.104;2023-05-29T11:07:59;97920.59;;;26.16;32.88
65227;BME280;51805;49.012;12.104;2023-05-29T11:10:55;97918.34;;;26.17;32.91
65227;BME280;51805;49.012;12.104;2023-05-29T11:13:36;97918.88;;;26.20;33.02
65227;BME280;51805;49.012;12.104;2023-05-29T11:16:14;97940.75;;;26.28;32.95
65227;BME280;51805;49.012;12.104;2023-05-29T11:18:45;97932.69;;;26.23;32.69
65227;BME280;51805;49.012;12.104;2023-05-29T11:21:33;97930.47;;;26.25;32.86
65227;BME280;51805;49.012;12.104;2023-05-29T11:24:02;97932.41;;;26.25;32.78
65227;BME280;51805;49.012;12.104;2023-05-29T11:26:29;97936.72;;;26.26;32.97
65227;BME280;51805;49.012;12.104;2023-05-29T11:29:04;97939.16;;;26.27;33.05
65227;BME280;51805;49.012;12.104;2023-05-29T11:31:31;97926.63;;;26.26;32.84
65227;BME280;51805;49.012;12.104;2023-05-29T11:33:59;97920.16;;;26.22;32.92
65227;BME280;51805;49.012;12.104;2023-05-29T11:36:25;97920.16;;;26.22;32.86
65227;BME280;51805;49.012;12.104;2023-05-29T11:38:51;97926.44;;;26.23;32.95
65227;BME280;51805;49.012;12.104;2023-05-29T11:41:17;97934.50;;;26.28;33.12
65227;BME280;51805;49.012;12.104;2023-05-29T11:43:42;97929.66;;;26.25;32.37
65227;BME280;51805;49.012;12.104;2023-05-29T11:46:18;97919.38;;;26.22;32.70
65227;BME280;51805;49.012;12.104;2023-05-29T11:48:47;97923.72;;;26.23;32.86
65227;BME280;51805;49.012;12.104;2023-05-29T11:51:12;97912.50;;;26.24;33.01
65227;BME280;51805;49.012;12.104;2023-05-29T11:53:43;97922.50;;;26.29;32.97
65227;BME280;51805;49.012;12.104;2023-05-29T11:56:09;97931.47;;;26.29;32.82
65227;BME280;51805;49.012;12.104;2023-05-29T11:58:36;97924.41;;;26.28;32.84
65227;BME280;51805;49.012;12.104;2023-05-29T12:01:01;97921.41;;;26.30;32.60
65227;BME280;51805;49.012;12.104;2023-05-29T12:03:27;97906.25;;;26.24;32.58
65227;BME280;51805;49.012;12.104;2023-05-29T12:05:52;97918.78;;;26.25;32.67
65227;BME280;51805;49.012;12.104;2023-05-29T12:08:21;97919.16;;;26.32;32.69
65227;BME280;51805;49.012;12.104;2023-05-29T12:10:47;97917.03;;;26.29;32.66
65227;BME280;51805;49.012;12.104;2023-05-29T12:13:13;97913.72;;;26.32;32.49
65227;BME280;51805;49.012;12.104;2023-05-29T12:15:38;97912.63;;;26.33;32.47
65227;BME280;51805;49.012;12.104;2023-05-29T12:18:04;97899.19;;;26.23;32.57
65227;BME280;51805;49.012;12.104;2023-05-29T12:20:29;97913.09;;;26.35;32.45
65227;BME280;51805;49.012;12.104;2023-05-29T12:23:02;97909.38;;;26.31;32.27
65227;BME280;51805;49.012;12.104;2023-05-29T12:25:27;97924.19;;;26.38;32.72
65227;BME280;51805;49.012;12.104;2023-05-29T12:27:55;97907.47;;;26.31;32.45
65227;BME280;51805;49.012;12.104;2023-05-29T12:30:22;97913.81;;;26.40;32.22
65227;BME280;51805;49.012;12.104;2023-05-29T12:32:49;97894.16;;;26.30;32.62
65227;BME280;51805;49.012;12.104;2023-05-29T12:35:28;97894.16;;;26.30;32.35
65227;BME280;51805;49.012;12.104;2023-05-29T12:38:00;97908.84;;;26.42;32.51
65227;BME280;51805;49.012;12.104;2023-05-29T12:40:27;97903.22;;;26.39;32.56
65227;BME280;51805;49.012;12.104;2023-05-29T12:42:57;97894.03;;;26.35;32.43
65227;BME280;51805;49.012;12.104;2023-05-29T12:45:28;97902.59;;;26.42;32.50
65227;BME280;51805;49.012;12.104;2023-05-29T12:47:56;97872.72;;;26.37;32.30
65227;BME280;51805;49.012;12.104;2023-05-29T12:50:23;97910.22;;;26.53;32.28
65227;BME280;51805;49.012;12.104;2023-05-29T12:53:08;97903.69;;;26.54;32.24
65227;BME280;51805;49.012;12.104;2023-05-29T12:55:35;97900.16;;;26.54;32.33